KOCF Airport Information

Runway Information
Runway 08 Length 3010 ft width 50 ft
Elevation 88 ft Threshold 0 ft Heading 80
Runway 26 Length 3010 ft Width 50 ft
Elevation 89 ft Threshold 0 ft Heading 260
Runway 18 Length 6907 ft width 150 ft
Elevation 81 ft Threshold 0 ft Heading 180
Runway 36 Length 6907 ft Width 150 ft
Elevation 78 ft Threshold 0 ft Heading 360
Airport Frequencies
Type A/D Name JACKSONVIL Frequency 118.6 MHZ
Type AWOS Name AWOS 3 Frequency 128.125 MHZ
Type RDO Name GAINESVILL Frequency 113.7 MHZ
Type UNIC Name CTAF/UNICO Frequency 123 MHZ
Airport Navaids
Airport Weather Information & NOTAM
ADDS - METARS form results

(0211 UTC 05 December 2020)
Data provider http://aviationweather.gov/metar/data/
 
METAR text: KOCF 050151Z AUTO 18004KT 10SM FEW100 17/16 A3008 RMK AO2 SLP185 T01720156 $
Conditions at: KOCF (OCALA MUNI , FL, US) observed 0151 UTC 05 December 2020
Temperature: 17.2°C (63°F)
Dewpoint: 15.6°C (60°F) [RH = 90%]
Pressure (altimeter): 30.08 inches Hg (1018.7 mb)
[Sea-level pressure: 1018.5 mb]
Winds: from the S (180 degrees) at 5 MPH (4 knots; 2.1 m/s)
Visibility: 10 or more miles (16+ km)
Ceiling: at least 12,000 feet AGL
Clouds: few clouds at 10000 feet AGL
Weather:
SOME DATA ABOVE MAY BE INACCURATE!!!
"$" is an indication the sensor requires maintenance